Time;durP1;ratioP1;P1;durP2;ratioP2;P2;SDS_P1;SDS_P2;PMS_P1;PMS_P2;Temp;Humidity;BMP_temperature;BMP_pressure;BME280_temperature;BME280_humidity;BME280_pressure;Samples;Min_cycle;Max_cycle;Signal;HPM_P1;HPM_P2
2022/03/22 00:01:14;;;;;;;9.78;4.20;;;;;;;6.25;67.38;149231.13;1778125;79;20952;-60
2022/03/22 00:03:45;;;;;;;12.63;4.05;;;;;;;6.22;67.68;149223.37;1802818;78;20964;-61
2022/03/22 00:06:13;;;;;;;14.53;4.65;;;;;;;6.17;67.72;149210.44;1803099;79;20995;-62
2022/03/22 00:08:41;;;;;;;10.88;4.67;;;;;;;6.13;68.50;149200.11;1803156;79;21058;-62
2022/03/22 00:11:11;;;;;;;14.07;4.40;;;;;;;6.12;68.36;149197.53;1802926;79;20936;-62
2022/03/22 00:13:42;;;;;;;10.90;3.98;;;;;;;6.10;68.74;149192.36;1803376;78;21449;-61
2022/03/22 00:16:09;;;;;;;10.93;4.45;;;;;;;6.09;68.72;149191.03;1802715;78;21457;-62
2022/03/22 00:18:39;;;;;;;11.05;4.60;;;;;;;6.08;68.95;149187.14;1803214;79;21032;-62
2022/03/22 00:21:07;;;;;;;8.68;4.08;;;;;;;6.08;69.30;149187.14;1803015;79;20983;-63
2022/03/22 00:23:36;;;;;;;10.30;3.92;;;;;;;6.06;68.88;149183.28;1803161;79;21056;-62
2022/03/22 00:26:03;;;;;;;11.15;4.83;;;;;;;6.01;68.51;149171.63;1802403;79;21482;-62
2022/03/22 00:28:33;;;;;;;8.33;4.12;;;;;;;5.91;68.81;149144.42;1802636;79;21031;-61
2022/03/22 00:31:02;;;;;;;8.88;4.53;;;;;;;5.84;68.99;149127.61;1802862;79;21498;-63
2022/03/22 00:33:30;;;;;;;8.40;4.10;;;;;;;5.77;69.36;149109.52;1803176;79;21454;-62
2022/03/22 00:35:58;;;;;;;8.48;4.00;;;;;;;5.71;70.00;149096.59;1803296;79;21032;-62
2022/03/22 00:38:26;;;;;;;11.80;4.50;;;;;;;5.72;70.13;149097.87;1805151;79;21784;-64
2022/03/22 00:40:53;;;;;;;11.33;4.50;;;;;;;5.69;69.76;149090.12;1814883;78;20821;-62
2022/03/22 00:43:22;;;;;;;10.70;4.22;;;;;;;5.65;69.96;149081.09;1814480;77;20968;-63
2022/03/22 00:45:50;;;;;;;12.80;4.62;;;;;;;5.59;70.08;149065.55;1815058;78;20945;-62
2022/03/22 00:48:19;;;;;;;13.75;4.70;;;;;;;5.56;70.24;149057.80;1814785;78;20999;-62
2022/03/22 00:50:47;;;;;;;9.28;4.50;;;;;;;5.51;70.33;149044.89;1815242;79;21122;-61
2022/03/22 00:53:18;;;;;;;12.65;4.75;;;;;;;5.45;70.39;149031.97;1814952;79;21297;-61
2022/03/22 00:55:44;;;;;;;8.23;3.62;;;;;;;5.41;70.29;149021.59;1814981;79;21414;-62
2022/03/22 00:58:14;;;;;;;10.18;4.33;;;;;;;5.34;70.60;149003.52;1814907;79;21059;-62
2022/03/22 01:00:41;;;;;;;10.90;4.20;;;;;;;5.29;70.50;148990.59;1815052;78;21051;-62
2022/03/22 01:03:09;;;;;;;11.28;5.10;;;;;;;5.22;70.78;148973.78;1814316;79;21288;-62
2022/03/22 01:05:38;;;;;;;11.68;4.33;;;;;;;5.16;71.25;148959.56;1814802;78;21515;-62
2022/03/22 01:08:09;;;;;;;12.15;4.62;;;;;;;5.11;71.52;148945.37;1814587;77;21225;-63
2022/03/22 01:10:42;;;;;;;12.90;4.55;;;;;;;5.06;71.63;148933.73;1814360;78;21066;-61
2022/03/22 01:13:13;;;;;;;11.12;4.33;;;;;;;5.01;71.72;148922.09;1814260;77;21056;-61
2022/03/22 01:15:42;;;;;;;11.80;4.87;;;;;;;4.99;71.94;148915.66;1814251;77;20963;-61
2022/03/22 01:18:11;;;;;;;11.63;4.62;;;;;;;4.95;72.10;148905.28;1814292;79;21011;-61
2022/03/22 01:20:44;;;;;;;13.60;4.40;;;;;;;4.93;72.16;148901.44;1814532;79;21588;-62
2022/03/22 01:23:13;;;;;;;13.18;4.72;;;;;;;4.90;72.34;148892.38;1814824;79;20956;-60
2022/03/22 01:25:41;;;;;;;13.15;4.87;;;;;;;4.86;72.39;148884.63;1814461;77;21096;-61
2022/03/22 01:28:11;;;;;;;14.30;5.10;;;;;;;4.84;72.48;148879.47;1813761;77;21159;-60
2022/03/22 01:30:38;;;;;;;10.13;4.50;;;;;;;4.79;72.83;148866.56;1814462;79;21007;-61
2022/03/22 01:33:05;;;;;;;8.63;4.42;;;;;;;4.76;72.88;148858.81;1814551;78;21075;-60
2022/03/22 01:35:33;;;;;;;10.90;4.65;;;;;;;4.73;72.92;148851.02;1814461;79;21098;-61
2022/03/22 01:38:00;;;;;;;11.55;4.97;;;;;;;4.71;72.88;148847.17;1814308;79;20996;-61
2022/03/22 01:40:30;;;;;;;14.18;5.65;;;;;;;4.68;73.05;148838.11;1814352;77;21817;-60
2022/03/22 01:42:58;;;;;;;14.70;4.80;;;;;;;4.61;73.57;148821.30;1814805;77;20861;-60
2022/03/22 01:45:25;;;;;;;13.55;4.90;;;;;;;4.61;73.57;148821.30;1814015;78;21047;-61
2022/03/22 01:47:52;;;;;;;13.43;4.67;;;;;;;4.59;73.60;148817.45;1814149;79;21031;-61
2022/03/22 01:50:20;;;;;;;14.70;5.08;;;;;;;4.57;73.88;148812.28;1814802;79;21500;-60
2022/03/22 01:52:48;;;;;;;12.05;4.80;;;;;;;4.54;74.06;148804.55;1814893;79;21138;-63
2022/03/22 01:55:18;;;;;;;11.88;4.53;;;;;;;4.54;74.28;148803.23;1814645;77;20997;-61
2022/03/22 01:57:45;;;;;;;17.15;5.85;;;;;;;4.54;74.11;148803.23;1814974;78;20968;-61
2022/03/22 02:00:15;;;;;;;20.23;5.70;;;;;;;4.52;74.27;148798.08;1814843;78;21024;-61
2022/03/22 02:08:16;;;;;;;13.65;5.03;;;;;;;4.44;74.75;148778.69;1813984;79;21028;-61
2022/03/22 02:10:45;;;;;;;11.63;4.72;;;;;;;4.40;74.88;148769.63;1815034;78;21019;-61
2022/03/22 02:13:13;;;;;;;13.00;5.30;;;;;;;4.39;74.97;148765.78;1814835;79;21060;-61
2022/03/22 02:15:40;;;;;;;15.32;5.40;;;;;;;4.36;75.13;148758.05;1814774;79;21055;-61
2022/03/22 02:18:09;;;;;;;12.65;5.25;;;;;;;4.34;75.11;148752.87;1814398;78;21497;-61
2022/03/22 02:20:37;;;;;;;11.93;5.08;;;;;;;4.29;75.30;148742.50;1814830;79;21079;-62
2022/03/22 02:23:07;;;;;;;17.48;5.85;;;;;;;4.27;75.41;148736.08;1814930;78;21007;-63
2022/03/22 02:25:35;;;;;;;13.32;5.30;;;;;;;4.24;75.20;148729.61;1783333;79;21144;-62
2022/03/22 02:28:04;;;;;;;13.28;6.30;;;;;;;4.20;75.69;148719.28;1814871;77;20937;-62
2022/03/22 02:30:31;;;;;;;13.35;5.35;;;;;;;4.17;75.70;148711.53;1815299;79;21472;-61
2022/03/22 02:33:03;;;;;;;15.35;6.08;;;;;;;4.16;76.02;148708.97;1815116;78;20998;-61
2022/03/22 02:35:31;;;;;;;11.78;5.17;;;;;;;4.14;75.93;148703.80;1814467;79;21611;-61
2022/03/22 02:37:58;;;;;;;11.73;5.90;;;;;;;4.12;76.36;148698.64;1815083;77;20876;-60
2022/03/22 02:40:26;;;;;;;14.23;5.83;;;;;;;4.08;76.33;148688.27;1814375;79;21067;-61
2022/03/22 02:42:56;;;;;;;13.72;5.87;;;;;;;4.08;76.57;148688.27;1815132;79;21159;-61
2022/03/22 02:45:24;;;;;;;13.88;5.62;;;;;;;4.07;76.80;148685.69;1814742;78;21006;-61
2022/03/22 02:47:51;;;;;;;13.13;5.15;;;;;;;3.99;77.04;148666.36;1814925;79;20992;-60
2022/03/22 02:50:21;;;;;;;14.60;6.00;;;;;;;3.99;77.04;148666.36;1814223;78;21039;-61
2022/03/22 02:52:48;;;;;;;12.35;4.97;;;;;;;3.98;77.08;148665.05;1815242;78;21033;-62
2022/03/22 02:55:15;;;;;;;14.13;5.65;;;;;;;3.99;77.26;148666.36;1814944;78;21204;-62
2022/03/22 02:57:45;;;;;;;13.43;6.47;;;;;;;3.98;77.22;148665.05;1815291;79;21445;-62
2022/03/22 03:00:14;;;;;;;14.40;5.33;;;;;;;3.97;77.21;148661.16;1815071;77;21020;-61
2022/03/22 03:02:51;;;;;;;12.18;5.20;;;;;;;3.86;77.48;148634.05;1815224;78;20916;-61
2022/03/22 03:05:20;;;;;;;12.28;5.70;;;;;;;3.86;77.48;148634.05;1815502;79;21023;-60
2022/03/22 03:07:48;;;;;;;21.90;6.62;;;;;;;3.77;77.83;148610.81;1815181;79;22145;-60
2022/03/22 03:10:16;;;;;;;15.20;6.12;;;;;;;3.77;77.83;148610.81;1814967;78;21422;-60
2022/03/22 03:12:44;;;;;;;15.10;5.75;;;;;;;3.72;78.29;148600.50;1815154;79;21011;-60
2022/03/22 03:15:12;;;;;;;15.05;6.40;;;;;;;3.72;78.29;148600.50;1814922;77;21581;-62
2022/03/22 03:17:39;;;;;;;14.87;5.72;;;;;;;3.70;78.84;148594.03;1815188;78;21783;-63
2022/03/22 03:20:08;;;;;;;16.32;5.58;;;;;;;3.69;78.96;148592.77;1814544;78;21215;-61
2022/03/22 03:22:37;;;;;;;17.60;5.87;;;;;;;3.69;78.98;148592.77;1814775;77;20998;-60
2022/03/22 03:25:06;;;;;;;11.05;5.20;;;;;;;3.68;79.33;148588.88;1814816;78;21382;-61
2022/03/22 03:27:36;;;;;;;12.93;5.00;;;;;;;3.81;79.05;148621.14;1814742;78;20991;-63
2022/03/22 03:30:05;;;;;;;17.20;5.33;;;;;;;3.83;78.93;148627.61;1815104;78;20869;-62
2022/03/22 03:32:33;;;;;;;11.60;4.62;;;;;;;3.83;78.93;148627.61;1814637;78;21099;-62
2022/03/22 03:35:01;;;;;;;15.93;4.85;;;;;;;3.92;78.65;148649.56;1814607;77;20902;-64
2022/03/22 03:37:35;;;;;;;15.18;5.10;;;;;;;3.95;78.30;148657.31;1814551;79;21063;-62
2022/03/22 03:40:03;;;;;;;16.82;4.92;;;;;;;3.99;78.18;148667.63;1814778;78;20948;-63
2022/03/22 03:42:30;;;;;;;14.87;4.85;;;;;;;4.02;77.95;148674.11;1814749;79;21026;-62
2022/03/22 03:47:46;;;;;;;16.57;5.37;;;;;;;4.11;77.45;148697.33;1814277;79;21036;-61
2022/03/22 03:50:14;;;;;;;14.00;4.97;;;;;;;4.13;77.42;148701.22;1811648;78;21297;-63
2022/03/22 03:52:43;;;;;;;10.45;4.30;;;;;;;4.14;77.41;148703.80;1811875;78;21012;-62
2022/03/22 03:55:10;;;;;;;16.12;5.62;;;;;;;4.18;77.21;148714.13;1811381;79;21334;-63
2022/03/22 03:57:38;;;;;;;17.12;5.12;;;;;;;4.21;77.07;148721.86;1811505;78;21254;-62
2022/03/22 04:00:07;;;;;;;11.90;4.50;;;;;;;4.25;77.14;148732.19;1779767;80;21518;-64
2022/03/22 04:02:36;;;;;;;14.38;4.78;;;;;;;4.29;76.79;148742.50;1778893;80;21056;-63
2022/03/22 04:05:05;;;;;;;13.72;4.62;;;;;;;4.28;76.78;148739.94;1780044;80;20992;-65
2022/03/22 04:07:32;;;;;;;9.90;4.60;;;;;;;4.28;76.78;148738.66;1780573;80;21071;-62
2022/03/22 04:10:00;;;;;;;11.60;4.37;;;;;;;4.28;76.82;148739.94;1780538;80;21515;-63
2022/03/22 04:12:27;;;;;;;12.75;4.20;;;;;;;4.35;76.75;148755.47;1779939;80;21087;-62
2022/03/22 04:14:55;;;;;;;11.63;4.33;;;;;;;4.40;76.51;148768.38;1780508;80;20985;-63
2022/03/22 04:17:22;;;;;;;9.60;3.80;;;;;;;4.46;76.58;148783.84;1780113;80;21024;-63
2022/03/22 04:19:51;;;;;;;9.20;3.42;;;;;;;4.54;75.94;148803.23;1780503;80;21035;-63
2022/03/22 04:22:18;;;;;;;18.77;4.95;;;;;;;4.65;75.57;148830.36;1780528;80;21221;-63
2022/03/22 04:24:45;;;;;;;11.05;4.08;;;;;;;4.73;75.35;148852.33;1780258;80;21024;-63
2022/03/22 04:32:45;;;;;;;12.07;4.35;;;;;;;4.91;73.98;148896.27;1780183;80;21040;-64
2022/03/22 04:35:17;;;;;;;14.47;4.15;;;;;;;4.95;73.77;148906.59;1779937;80;21897;-65
2022/03/22 04:37:45;;;;;;;12.65;4.20;;;;;;;5.01;73.55;148920.81;1779757;80;21067;-62
2022/03/22 04:40:14;;;;;;;17.25;4.33;;;;;;;5.03;73.48;148925.98;1779339;80;21501;-64
2022/03/22 04:42:42;;;;;;;17.70;4.47;;;;;;;5.06;73.14;148933.73;1779572;80;21056;-64
2022/03/22 04:45:10;;;;;;;15.98;4.50;;;;;;;5.11;72.80;148946.64;1749043;80;21539;-62
2022/03/22 04:47:37;;;;;;;13.60;4.70;;;;;;;5.20;72.42;148967.34;1779653;80;21138;-65
2022/03/22 04:50:10;;;;;;;16.23;4.95;;;;;;;5.21;72.40;148969.94;1779944;80;20890;-62
2022/03/22 04:58:11;;;;;;;14.35;4.50;;;;;;;5.22;72.45;148972.52;1779736;80;21048;-63
2022/03/22 05:00:38;;;;;;;12.33;4.60;;;;;;;5.25;72.24;148980.27;1779978;80;21457;-61
2022/03/22 05:03:08;;;;;;;16.52;4.37;;;;;;;5.31;71.89;148995.77;1780374;80;20949;-63
2022/03/22 05:08:23;;;;;;;16.67;4.35;;;;;;;5.42;71.27;149022.91;1780076;80;20924;-64
2022/03/22 05:10:53;;;;;;;15.72;4.72;;;;;;;5.54;70.97;149052.64;1780586;80;21051;-61
2022/03/22 05:13:20;;;;;;;19.67;4.28;;;;;;;5.76;70.48;149108.25;1780082;80;21221;-66
2022/03/22 05:15:50;;;;;;;15.43;4.10;;;;;;;6.19;68.64;149215.62;1780584;80;21011;-63
2022/03/22 05:18:17;;;;;;;14.35;3.87;;;;;;;6.76;66.91;149356.63;1780506;80;21111;-64
2022/03/22 05:20:44;;;;;;;12.55;4.30;;;;;;;7.35;64.47;149505.45;1780217;80;20972;-63
2022/03/22 05:23:12;;;;;;;14.87;4.45;;;;;;;7.78;61.99;149611.62;1780415;80;21016;-64
2022/03/22 05:25:39;;;;;;;15.98;4.65;;;;;;;7.96;60.89;149658.27;1780418;80;20976;-63
2022/03/22 05:28:06;;;;;;;19.52;4.40;;;;;;;7.98;60.32;149663.44;1779923;80;20961;-64
2022/03/22 05:30:35;;;;;;;17.75;4.60;;;;;;;7.75;60.36;149605.19;1779873;80;21588;-63
2022/03/22 05:33:02;;;;;;;15.70;4.72;;;;;;;7.38;61.34;149513.22;1780219;80;20949;-64
2022/03/22 05:35:31;;;;;;;21.65;4.60;;;;;;;7.08;62.23;149436.89;1779571;80;21086;-63
2022/03/22 05:37:58;;;;;;;15.25;4.75;;;;;;;6.91;63.06;149394.14;1779997;80;21318;-62
2022/03/22 05:40:26;;;;;;;21.82;4.62;;;;;;;6.71;63.87;149346.28;1776451;80;21031;-62
2022/03/22 05:42:53;;;;;;;16.50;4.58;;;;;;;6.59;64.44;149316.53;1771541;80;20960;-63
2022/03/22 05:45:21;;;;;;;15.55;4.50;;;;;;;6.57;64.79;149310.03;1771597;81;21016;-62
2022/03/22 05:47:49;;;;;;;22.87;4.65;;;;;;;6.49;64.95;149290.63;1771746;80;21047;-62
2022/03/22 05:50:19;;;;;;;19.37;4.50;;;;;;;6.43;65.40;149275.11;1771412;80;21037;-62
2022/03/22 05:52:49;;;;;;;18.37;4.42;;;;;;;6.42;65.48;149272.53;1771365;81;21039;-61
2022/03/22 05:55:17;;;;;;;16.93;4.20;;;;;;;6.35;65.79;149254.44;1770267;80;21752;-64
2022/03/22 05:57:44;;;;;;;18.95;5.65;;;;;;;6.26;66.20;149232.44;1770534;80;20981;-62
2022/03/22 06:00:14;;;;;;;17.87;4.53;;;;;;;6.23;66.40;149225.95;1770649;80;20981;-64
2022/03/22 06:02:42;;;;;;;12.80;4.75;;;;;;;6.20;66.67;149218.20;1771204;81;21508;-63
2022/03/22 06:05:12;;;;;;;23.18;4.67;;;;;;;6.15;66.86;149205.28;1770292;80;20992;-63
2022/03/22 06:07:41;;;;;;;16.25;4.50;;;;;;;6.19;67.10;149215.62;1771417;80;21186;-63
2022/03/22 06:10:10;;;;;;;13.95;4.70;;;;;;;6.27;66.73;149236.30;1747293;81;21008;-63
2022/03/22 06:12:46;;;;;;;16.97;5.20;;;;;;;6.30;66.83;149244.09;1771550;80;21044;-61
2022/03/22 06:15:19;;;;;;;18.48;4.53;;;;;;;6.34;66.74;149251.84;1771767;81;21170;-65
2022/03/22 06:18:01;;;;;;;16.40;4.70;;;;;;;6.27;66.83;149236.30;1771164;80;20984;-64
2022/03/22 06:20:32;;;;;;;16.27;4.65;;;;;;;6.28;67.32;149238.88;1771590;81;21040;-63
2022/03/22 06:23:01;;;;;;;18.23;4.72;;;;;;;6.38;67.32;149262.19;1771328;80;21072;-63
2022/03/22 06:25:29;;;;;;;17.32;4.70;;;;;;;6.39;67.57;149264.78;1771086;81;20992;-62
2022/03/22 06:27:58;;;;;;;17.20;5.65;;;;;;;6.39;67.45;149264.78;1771391;80;20961;-63
2022/03/22 06:30:25;;;;;;;13.53;4.08;;;;;;;6.35;67.34;149255.70;1770990;81;21520;-62
2022/03/22 06:33:00;;;;;;;20.12;4.72;;;;;;;6.27;67.34;149236.30;1771746;80;21075;-63
2022/03/22 06:35:28;;;;;;;17.62;5.15;;;;;;;6.26;68.18;149233.70;1771190;80;21457;-62
2022/03/22 06:37:57;;;;;;;15.28;4.97;;;;;;;6.32;68.31;149246.69;1771546;80;21470;-64
2022/03/22 06:40:28;;;;;;;17.52;4.92;;;;;;;6.34;68.22;149253.13;1769794;80;21569;-64
2022/03/22 06:42:56;;;;;;;15.30;4.72;;;;;;;6.36;68.12;149257.02;1764142;81;21558;-64
2022/03/22 06:45:24;;;;;;;13.18;4.60;;;;;;;6.40;68.05;149267.36;1764379;80;20973;-62
2022/03/22 06:47:52;;;;;;;13.85;4.50;;;;;;;6.41;67.82;149271.27;1764303;81;21072;-62
2022/03/22 06:50:21;;;;;;;12.82;4.00;;;;;;;6.42;68.25;149272.53;1763958;80;21060;-63
2022/03/22 06:52:48;;;;;;;15.05;4.50;;;;;;;6.39;67.99;149266.05;1764342;81;21250;-63
2022/03/22 06:55:18;;;;;;;16.65;4.95;;;;;;;6.43;68.10;149276.44;1763712;80;20986;-63
2022/03/22 06:57:45;;;;;;;13.32;4.70;;;;;;;6.69;67.69;149339.80;1763980;80;21602;-63
2022/03/22 07:00:15;;;;;;;16.57;5.15;;;;;;;6.93;66.24;149399.31;1763591;80;21001;-64
2022/03/22 07:02:47;;;;;;;14.85;5.00;;;;;;;6.92;66.19;149398.05;1763806;81;21056;-63
2022/03/22 07:05:12;;;;;;;17.27;4.87;;;;;;;6.86;66.62;149382.53;1763522;81;21443;-65
2022/03/22 07:07:42;;;;;;;20.35;4.78;;;;;;;6.79;67.06;149365.69;1763988;81;21052;-62
2022/03/22 07:10:12;;;;;;;14.65;5.03;;;;;;;6.74;67.37;149352.72;1763986;81;21005;-64
2022/03/22 07:12:58;;;;;;;17.48;4.30;;;;;;;6.67;67.90;149334.62;1764136;80;21001;-62
2022/03/22 07:15:33;;;;;;;16.73;5.22;;;;;;;6.55;68.49;149306.19;1764123;80;21096;-63
2022/03/22 07:18:03;;;;;;;18.82;4.50;;;;;;;6.49;68.98;149290.63;1764238;81;21474;-63
2022/03/22 07:20:32;;;;;;;20.05;5.30;;;;;;;6.54;68.97;149302.28;1764362;81;21004;-64
2022/03/22 07:23:00;;;;;;;17.82;4.70;;;;;;;6.71;68.92;149346.28;1764193;80;20992;-63
2022/03/22 07:25:28;;;;;;;15.28;5.30;;;;;;;6.82;68.37;149373.45;1764365;80;21553;-63
2022/03/22 07:27:55;;;;;;;15.63;4.47;;;;;;;6.82;68.37;149373.45;1764299;80;21013;-63
2022/03/22 07:30:23;;;;;;;18.35;5.53;;;;;;;6.73;68.21;149350.13;1764279;81;21266;-63
2022/03/22 07:32:51;;;;;;;18.50;5.05;;;;;;;6.65;68.14;149329.45;1763957;81;21604;-63
2022/03/22 07:35:19;;;;;;;16.30;5.00;;;;;;;6.58;68.76;149312.63;1764144;81;21095;-63
2022/03/22 07:37:48;;;;;;;17.12;5.25;;;;;;;6.52;68.77;149298.44;1764370;81;21040;-64
2022/03/22 07:40:16;;;;;;;16.42;4.67;;;;;;;6.44;69.35;149279.02;1764159;80;21056;-62
2022/03/22 07:42:44;;;;;;;11.08;4.95;;;;;;;6.47;69.50;149285.45;1779634;80;21269;-64
2022/03/22 07:45:12;;;;;;;17.73;4.75;;;;;;;6.50;69.06;149293.20;1779450;80;20996;-67
2022/03/22 07:47:41;;;;;;;16.77;4.62;;;;;;;6.52;69.18;149298.44;1779474;80;21035;-64
2022/03/22 07:53:01;;;;;;;15.25;4.55;;;;;;;6.61;69.62;149319.11;1779852;80;21071;-63
2022/03/22 07:55:30;;;;;;;21.95;5.33;;;;;;;6.64;69.68;149326.88;1778987;80;21805;-63
2022/03/22 07:57:58;;;;;;;14.18;4.65;;;;;;;6.66;69.48;149332.03;1783948;78;20987;-66
2022/03/22 08:00:30;;;;;;;14.40;4.85;;;;;;;6.67;68.81;149335.94;1819285;78;21457;-63
2022/03/22 08:02:59;;;;;;;15.23;4.53;;;;;;;6.70;69.34;149342.37;1820238;78;21047;-64
2022/03/22 08:05:27;;;;;;;18.10;5.00;;;;;;;6.72;68.67;149348.87;1820703;78;21070;-63
2022/03/22 08:07:55;;;;;;;18.42;4.42;;;;;;;6.74;68.90;149354.03;1821255;78;21091;-65
2022/03/22 08:10:23;;;;;;;16.85;4.75;;;;;;;6.75;69.33;149355.36;1820802;78;21006;-63
2022/03/22 08:12:50;;;;;;;18.82;5.22;;;;;;;6.70;69.83;149343.70;1820679;78;20987;-60
2022/03/22 08:15:21;;;;;;;15.78;4.72;;;;;;;6.67;70.16;149335.94;1820281;78;21083;-60
2022/03/22 08:17:48;;;;;;;17.90;5.00;;;;;;;6.67;70.49;149334.62;1820515;78;21011;-63
2022/03/22 08:20:16;;;;;;;17.23;5.08;;;;;;;6.69;70.32;149339.80;1820253;78;22026;-61
2022/03/22 08:22:59;;;;;;;17.55;4.45;;;;;;;6.74;70.59;149352.72;1820495;77;21059;-61
2022/03/22 08:25:38;;;;;;;16.73;4.65;;;;;;;6.79;70.56;149364.38;1820664;78;20943;-61
2022/03/22 08:28:08;;;;;;;14.38;4.10;;;;;;;6.82;70.46;149373.45;1820862;78;20997;-60
2022/03/22 08:30:37;;;;;;;17.60;4.78;;;;;;;6.85;70.00;149381.22;1820814;78;20952;-60
2022/03/22 08:33:07;;;;;;;21.60;5.22;;;;;;;6.87;69.71;149385.13;1821029;78;20909;-60
2022/03/22 08:35:35;;;;;;;14.58;4.72;;;;;;;6.90;69.36;149391.56;1820761;77;21006;-60
2022/03/22 08:38:02;;;;;;;19.60;4.60;;;;;;;6.99;68.88;149414.88;1821120;78;20994;-60
2022/03/22 08:40:29;;;;;;;15.65;4.12;;;;;;;7.09;68.15;149440.75;1820530;78;21031;-61
2022/03/22 08:42:57;;;;;;;16.57;4.53;;;;;;;7.17;67.46;149460.16;1812021;78;20990;-63
2022/03/22 08:45:27;;;;;;;18.02;4.95;;;;;;;7.23;67.00;149474.42;1811511;77;21531;-62
2022/03/22 08:47:55;;;;;;;14.78;4.47;;;;;;;7.27;67.37;149484.77;1811990;79;21293;-62
2022/03/22 08:50:23;;;;;;;16.35;4.40;;;;;;;7.31;67.40;149495.11;1811929;79;21012;-63
2022/03/22 08:52:51;;;;;;;24.05;5.20;;;;;;;7.30;67.76;149492.53;1811856;79;21062;-64
2022/03/22 08:55:18;;;;;;;14.47;4.75;;;;;;;7.31;67.71;149495.11;1811621;79;21379;-63
2022/03/22 08:57:48;;;;;;;17.30;4.80;;;;;;;7.33;66.79;149500.28;1812027;79;21316;-64
2022/03/22 09:00:17;;;;;;;17.42;4.42;;;;;;;7.39;66.13;149514.53;1811772;79;21318;-61
2022/03/22 09:02:47;;;;;;;12.53;4.15;;;;;;;7.49;66.08;149539.14;1812238;79;21051;-61
2022/03/22 09:08:01;;;;;;;19.82;4.80;;;;;;;7.59;65.90;149566.33;1812187;78;21426;-64
2022/03/22 09:10:29;;;;;;;18.05;4.40;;;;;;;7.66;65.56;149583.17;1811964;78;22106;-61
2022/03/22 09:12:58;;;;;;;16.42;4.05;;;;;;;7.68;65.54;149588.34;1811759;79;20975;-63
2022/03/22 09:15:31;;;;;;;15.13;3.95;;;;;;;7.76;65.09;149606.45;1811364;79;21078;-62
2022/03/22 09:17:58;;;;;;;14.18;4.40;;;;;;;7.82;64.82;149623.30;1811858;78;20991;-64
2022/03/22 09:20:31;;;;;;;17.20;3.95;;;;;;;7.83;64.67;149624.56;1811643;79;22188;-62
2022/03/22 09:22:56;;;;;;;14.45;4.17;;;;;;;7.83;65.29;149624.56;1811672;79;22129;-62
2022/03/22 09:25:24;;;;;;;15.08;3.95;;;;;;;7.84;65.57;149627.16;1811362;79;21453;-60
2022/03/22 09:27:53;;;;;;;22.52;4.12;;;;;;;7.85;66.08;149631.06;1811802;79;21429;-61
2022/03/22 09:30:21;;;;;;;14.55;4.28;;;;;;;7.84;66.53;149628.47;1811455;78;21082;-61
2022/03/22 09:32:49;;;;;;;19.17;4.17;;;;;;;7.84;67.14;149627.16;1811570;78;21429;-62
2022/03/22 09:35:19;;;;;;;22.27;3.87;;;;;;;7.83;67.53;149625.89;1811743;79;21811;-63
2022/03/22 09:37:48;;;;;;;15.28;3.70;;;;;;;7.85;67.83;149629.80;1811580;79;21003;-62
2022/03/22 09:40:19;;;;;;;13.45;4.12;;;;;;;7.92;68.03;149646.59;1812004;79;20865;-60
2022/03/22 09:42:47;;;;;;;14.13;4.00;;;;;;;7.97;67.75;149659.58;1811457;77;21429;-62
2022/03/22 09:45:21;;;;;;;13.32;3.80;;;;;;;8.00;67.75;149668.61;1811581;78;20912;-63
2022/03/22 09:47:50;;;;;;;14.18;3.90;;;;;;;8.03;67.50;149675.11;1811583;79;20928;-64
2022/03/22 09:50:17;;;;;;;11.25;3.25;;;;;;;8.01;67.31;149671.20;1811783;79;20925;-61
2022/03/22 09:52:45;;;;;;;17.23;3.83;;;;;;;7.99;66.97;149666.03;1811783;78;20983;-61
2022/03/22 09:55:13;;;;;;;16.37;3.83;;;;;;;7.99;67.46;149666.03;1811922;77;20983;-63
2022/03/22 09:57:40;;;;;;;12.35;3.50;;;;;;;7.98;67.66;149662.16;1812061;79;20972;-62
2022/03/22 10:00:13;;;;;;;11.50;3.60;;;;;;;7.96;67.72;149658.27;1811972;79;21356;-64
2022/03/22 10:02:41;;;;;;;11.90;4.13;;;;;;;7.95;67.37;149655.67;1811691;79;22060;-63
2022/03/22 10:05:23;;;;;;;14.30;3.58;;;;;;;7.95;67.18;149655.67;1811348;77;21005;-65
2022/03/22 10:08:01;;;;;;;8.48;3.10;;;;;;;7.96;66.74;149657.00;1811773;77;21063;-61
2022/03/22 10:10:28;;;;;;;10.00;3.05;;;;;;;7.98;66.47;149663.44;1811804;79;22411;-61
2022/03/22 10:12:59;;;;;;;12.00;3.20;;;;;;;8.05;66.37;149680.28;1811567;79;21254;-60
2022/03/22 10:15:32;;;;;;;12.55;3.52;;;;;;;8.09;66.21;149689.38;1811639;77;21426;-64
2022/03/22 10:18:09;;;;;;;11.40;3.08;;;;;;;8.15;66.72;149704.89;1811921;79;20981;-64
2022/03/22 10:20:40;;;;;;;11.63;3.37;;;;;;;8.14;66.71;149702.31;1811636;78;21473;-63
2022/03/22 10:23:13;;;;;;;15.25;3.67;;;;;;;8.08;67.36;149686.78;1811796;78;21434;-64
2022/03/22 10:25:41;;;;;;;19.48;3.72;;;;;;;8.06;67.83;149682.88;1779077;79;22212;-61
2022/03/22 10:28:09;;;;;;;16.67;3.42;;;;;;;8.08;68.00;149686.78;1811641;79;21573;-60
2022/03/22 10:30:40;;;;;;;13.37;3.23;;;;;;;8.09;68.00;149689.38;1811478;78;20971;-61
2022/03/22 10:33:07;;;;;;;8.80;3.12;;;;;;;8.13;67.92;149699.72;1811700;79;21470;-62
2022/03/22 10:35:37;;;;;;;14.78;2.80;;;;;;;8.13;67.69;149699.72;1778932;79;20948;-61
2022/03/22 10:38:06;;;;;;;9.73;2.62;;;;;;;8.10;67.21;149693.22;1812408;79;21955;-61
2022/03/22 10:40:44;;;;;;;12.90;3.55;;;;;;;8.08;67.54;149686.78;1811896;78;20995;-62
2022/03/22 10:43:22;;;;;;;10.58;3.02;;;;;;;8.11;67.56;149695.81;1811853;78;21024;-62
2022/03/22 10:46:02;;;;;;;12.43;2.45;;;;;;;8.16;66.61;149707.48;1812185;79;20987;-61
2022/03/22 10:48:34;;;;;;;10.28;2.40;;;;;;;8.14;66.44;149702.31;1811500;79;21082;-63
2022/03/22 10:51:03;;;;;;;11.08;2.47;;;;;;;8.15;66.35;149704.89;1812160;78;20888;-61
2022/03/22 10:53:32;;;;;;;7.33;2.40;;;;;;;8.16;66.36;149708.75;1811969;78;20936;-64
2022/03/22 10:56:02;;;;;;;8.33;2.47;;;;;;;8.20;66.15;149717.84;1812161;77;21517;-62
2022/03/22 10:58:30;;;;;;;9.68;2.22;;;;;;;8.22;66.15;149723.02;1812229;79;21036;-63
2022/03/22 11:01:02;;;;;;;8.53;2.10;;;;;;;8.22;66.34;149723.02;1812218;79;20964;-64
2022/03/22 11:03:30;;;;;;;7.97;2.37;;;;;;;8.23;66.07;149725.61;1811757;78;21266;-63
2022/03/22 11:06:02;;;;;;;11.85;2.33;;;;;;;8.24;65.86;149726.92;1811513;78;20973;-64
2022/03/22 11:08:30;;;;;;;10.58;2.50;;;;;;;8.21;65.75;149720.42;1811938;79;20936;-63
2022/03/22 11:10:58;;;;;;;7.12;2.25;;;;;;;8.17;66.11;149710.08;1811857;79;21031;-63
2022/03/22 11:13:27;;;;;;;6.95;2.05;;;;;;;8.13;66.50;149701.00;1811339;79;20948;-63
2022/03/22 11:15:55;;;;;;;10.10;2.40;;;;;;;8.13;66.50;149699.72;1811807;79;21511;-64
2022/03/22 11:18:28;;;;;;;9.23;2.33;;;;;;;8.12;66.82;149698.41;1811566;78;20956;-64
2022/03/22 11:21:01;;;;;;;11.43;2.13;;;;;;;8.12;66.94;149697.13;1811996;77;20979;-63
2022/03/22 11:23:31;;;;;;;8.78;2.52;;;;;;;8.09;67.05;149689.38;1812008;78;20960;-65
2022/03/22 11:26:15;;;;;;;9.03;2.00;;;;;;;8.08;66.98;149688.05;1812199;77;21070;-63
2022/03/22 11:28:44;;;;;;;5.55;2.05;;;;;;;8.08;66.94;149686.78;1778992;79;21196;-64
2022/03/22 11:31:14;;;;;;;11.10;2.02;;;;;;;8.08;66.54;149686.78;1778793;77;21024;-63
2022/03/22 11:36:28;;;;;;;7.53;2.20;;;;;;;8.11;66.39;149694.55;1811617;78;21074;-64
2022/03/22 11:38:56;;;;;;;9.28;2.05;;;;;;;8.11;65.96;149694.55;1753509;79;20976;-63
2022/03/22 11:44:37;;;;;;;9.08;2.08;;;;;;;8.11;65.65;149694.55;1811783;79;21024;-64
2022/03/22 11:47:14;;;;;;;9.28;2.20;;;;;;;8.06;65.86;149682.88;1812312;79;21047;-64
2022/03/22 11:50:06;;;;;;;8.28;2.17;;;;;;;8.06;65.72;149681.55;1815259;79;20992;-62
2022/03/22 11:52:40;;;;;;;7.95;2.08;;;;;;;8.07;65.37;149685.47;1785154;79;20996;-64
2022/03/22 11:55:16;;;;;;;7.67;2.25;;;;;;;8.08;65.70;149686.78;1815775;79;21899;-62
2022/03/22 11:58:05;;;;;;;11.18;2.02;;;;;;;8.06;65.20;149681.55;1815285;78;21011;-64
2022/03/22 12:00:46;;;;;;;8.65;2.20;;;;;;;8.05;65.40;149678.97;1817762;78;21003;-64
2022/03/22 12:03:17;;;;;;;8.08;1.70;;;;;;;8.05;65.19;149678.97;1817296;78;20913;-62
2022/03/22 12:05:44;;;;;;;7.20;2.20;;;;;;;8.05;65.49;149680.28;1817192;78;21088;-63
2022/03/22 12:08:19;;;;;;;10.88;1.95;;;;;;;8.10;64.99;149691.95;1817234;78;21217;-63
2022/03/22 12:10:49;;;;;;;12.85;2.33;;;;;;;8.14;63.55;149702.31;1817798;78;21117;-62